Hlavní strana
METAR-TAF:

METAR-TAF

Letiště :

Olney-Noble Airport

Olney-Noble, Illinois, Spojené státy americké

zeměpisná šířka: 38-43-19N, zeměpisná délka: 088-10-35W, výška: 147 m

Aktuální stav počasí

Zpráva byla vytvořena před 21 hodinami a 39 minutami, v 23:55 UTC
Bezvětří
Teplota 23°C
Vlhkost vzduchu 94%
Tlak 1009 hPa
Viditelnost: 2.4 km
Polojasno ve výšce 1100 ft
Oblačno až skoro zataženo ve výšce 2800 ft
Zataženo ve výšce 7000 ft
slabý déšť

METAR: KOLY 202355Z AUTO 00000KT 1 1/2SM -RA SCT011 BKN028 OVC070 23/22 A2979 RMK AO2 LTG DSNT E P0022 60022 T02320220 10293 20232

Čas: 16:34 (21:34 UTC)


TAF: chybějící

Stav a předpovědi počasí z více než 4 000 letišť (zprávy METAR a TAF).

Červené a žluté tečky na mapě představují dostupné meteorologické stanice.

Když kurzor umístíte na tečku, zobrazí se název stanice.

Pak kliknutím zobrazíte stav a předpověď počasí.

Chcete-li změnit mapu, kliknutím na zelené tlačítko se znaménkem +mapu přiblížíte, kliknutím na zelené tlačítko se znaménkem – mapu oddálíte a kliknutím na zelené šipky přejdete na sousední mapy.


METAR-TAF: